Randsburg, California
Current Conditions -  °F | °C
As of 7:56 AM on Thursday 30 Oct 2014 (Local Time) from KNID Reporting Station
Broken Clouds Broken Clouds  
Wind Chill: 44°   Ceiling: 30000
Heat Index: 47°   Visibility: 10mi
Dew Point: 15°   Wind: 6mph
Humidity: 28%   Direction: 180°S
Pressure: 30.07"   Gusts: NA
Location:  35.37°N, 117.66°W
Report Text: KNID 301456Z 18005KT 10SM SCT250 BKN300 08/M09 A3007 RMK AO2 SLP183 T00831094 53008 $
Loading
Personal Weather Stations






























Interactive Weather Map
Tropical Storm Tracking
New forecast layout! Learn more

10-Day Weather Forecast

Advertisements
Track Severe Weather on mobile